Relevés horaires Bierset (Belgique)


Relevés horaires à Bierset - Lundi 07 Mai 2018
Heure UTC1 Température [°C] Vent [km/h] Hum. [%] Pres.4 [hPa] Visi. [Km] Nébu. [octa] Préc.5 [mm] Cond.
2m. Res. Ros. Dir.2 Vit. Moy. Raf.3
23:00 18.2 18.2 6.4 SE 1.9 5.6 7.4 46 1014.5(-0.4/3h) 30 0/8 -- --
22:00 19.3 19.3 6.6 SE 3.7 5.6 9.3 44 1014.7(0.0/3h) 30 0/8 -- --
21:00 20.6 20.6 6.0 E 5.6 7.4 13.0 39 1014.8(0.2/3h) 30 0/8 -- --
20:00 20.3 20.3 7.3 ENE 3.7 7.4 9.3 43 1014.8(-0.1/3h) 30 0/8 -- --
19:00 20.3 20.3 8.2 NE 7.4 7.4 11.1 46 1014.6(-0.7/3h) 30 0/8 -- --
18:00 22.2 22.2 8.5 NE 7.4 11.1 20.4 41 1014.5(-1.1/3h) 30 0/8 0/12h
--
17:00 23.3 23.3 8.7 NNE 9.3 11.1 16.7 39 1014.7(-1.4/3h) 30 0/8 -- --
16:00 23.9 23.9 8.6 NE 11.1 11.1 16.7 38 1015.1(-1.6/3h) 30 0/8 -- --
15:00 24.0 24.0 7.8 NE 11.1 11.1 20.4 35 1015.4(-1.7/3h) 30 0/8 -- --
14:00 23.9 23.9 7.9 NNE 11.1 11.1 20.4 36 1016(-1.7/3h) 30 0/8 -- --
13:00 23.9 23.9 9.1 NE 9.3 9.3 20.4 39 1016.7(-1.6/3h) 30 0/8 -- --
12:00 23.4 23.4 9.8 N 5.6 7.4 16.7 42 1017.2(-1.6/3h) 30 0/8 0/6h
--
11:00 22.5 22.5 8.3 NE 5.6 7.4 11.1 40 1017.8(-1.1/3h) 30 0/8 -- --
10:00 21.5 21.5 10.9 NNE 5.6 5.6 16.7 51 1018.5(-0.4/3h) 30 0/8 -- --
09:00 21.1 21.1 7.7 ESE 3.7 7.4 9.3 42 1019(0.0/3h) 30 0/8 -- --
08:00 18.8 18.8 7.0 ESE 5.6 5.6 9.3 46 1019.2(0.1/3h) 30 0/8 -- --
07:00 16.8 16.8 6.6 SE 5.6 7.4 9.3 51 1019.3(0.0/3h) 30 0/8 -- --
06:00 15.4 15.4 6.9 SE 7.4 7.4 24.1 57 1019.4(-0.4/3h) 30 0/8 0/12h
--
05:00 14.4 14.3 6.2 SE 7.4 7.4 24.1 58 1019.5(-0.5/3h) 30 0/8 -- --
04:00 14.1 13.9 5.9 SE 7.4 7.4 9.3 58 1019.5(-0.6/3h) 30 0/8 -- --
03:00 14.3 14.3 6.0 ESE 3.7 5.6 18.5 57 1019.9(-0.4/3h) 30 0/8 -- --
02:00 14.0 14.0 6.8 SE 5.6 5.6 18.5 62 1020.1(-0.5/3h) 30 0/8 -- --
01:00 15.8 15.8 5.8 ESE 5.6 5.6 13.0 51 1020(-0.5/3h) 30 0/8 -- --
00:00 16.6 16.6 5.6 ESE 3.7 9.3 22.2 48 1020.1(0.0/3h) 30 0/8 0/6h
0/24h
--

1 Coordinated Universal Time. Actuellement il est 01:00 locale et 23:00 UTC.

2 Le vent souffle depuis la direction indiquée vers la direction oposée.

3 Les rafales max. sont disponible 40 min après l'heure du relevé.

4 Pour les stations d'altitude (plus de 600m) le géopotentiel du niveau le plus proche de la pression obligatoire est indiqué.

5 Les stations disposant d'un diffuseur peuvent indiquer "trace". Cela signifie que des précipitations ont touchés le sol mais que la quantité est inférieure à 0.1 mm.

Récapitulatif de la journée
Température [°C] Vent [km/h] Ensoleillement4 [h] Precipitations totale5 [mm] Pression [Hpa]
Min1 Max.2 Moy.3 Max. Min Max.
13.8 24.6 7.8 24.1 0 h 0 min 0 1014.5 1020.1

1 Température minimale relevée entre 18:00 UTC la veille et 18:00 UTC le jour donné.

2 Température maximale relevée entre 06:00 UTC le jour donné et 06:00 UTC le lendemain.

3 Vent moyen de la journée basé sur les relevés horaires.

4 Ensoleillement en heures relevé entre 06:00 UTC la veille et 06:00 UTC le jour donné.

5 Précipitations totales tombées entre 06:00 UTC la jour donné et 06:00 UTC le lendemain.

Graphiques horaires